Time;durP1;ratioP1;P1;durP2;ratioP2;P2;SDS_P1;SDS_P2;PMS_P1;PMS_P2;Temp;Humidity;BMP_temperature;BMP_pressure;BME280_temperature;BME280_humidity;BME280_pressure;Samples;Min_cycle;Max_cycle;Signal;HPM_P1;HPM_P2
2022/01/04 00:00:25;;;;;;;;;0.00;0.00;;;;;12.46;76.16;99960.97;5083096;28;45330;-83
2022/01/04 00:02:51;;;;;;;;;0.25;0.00;;;;;11.84;75.80;99851.16;5082958;28;45389;-83
2022/01/04 00:05:16;;;;;;;;;0.00;0.00;;;;;12.00;76.62;99867.50;5083048;28;45690;-84
2022/01/04 00:07:42;;;;;;;;;0.00;0.00;;;;;12.36;76.33;99906.25;5064141;28;46526;-84
2022/01/04 00:10:08;;;;;;;;;0.00;0.00;;;;;12.40;76.02;99899.22;5082248;28;45480;-84
2022/01/04 00:15:19;;;;;;;;;0.25;0.00;;;;;12.34;75.96;99892.34;5083027;28;45484;-84
2022/01/04 00:17:45;;;;;;;;;0.00;0.00;;;;;12.03;75.65;99854.41;5082808;28;45781;-84
2022/01/04 00:20:11;;;;;;;;;0.00;0.00;;;;;11.55;75.48;99809.75;5064509;28;45420;-84
2022/01/04 00:22:37;;;;;;;;;0.00;0.00;;;;;12.05;75.30;99898.75;5082735;28;45743;-84
2022/01/04 00:25:03;;;;;;;;;0.00;0.00;;;;;11.75;75.57;99864.28;5069797;28;45483;-84
2022/01/04 00:27:28;;;;;;;;;0.00;0.00;;;;;12.00;75.79;99909.22;5082322;28;47476;-84
2022/01/04 00:29:55;;;;;;;;;0.00;0.00;;;;;11.80;75.66;99878.16;5082335;28;45369;-84
2022/01/04 00:32:20;;;;;;;;;0.00;0.00;;;;;11.75;75.92;99870.38;5074594;28;45473;-81
2022/01/04 00:34:46;;;;;;;;;0.00;0.00;;;;;11.27;75.50;99790.91;5061925;28;45613;-83
2022/01/04 00:37:11;;;;;;;;;0.00;0.00;;;;;11.58;75.36;99851.44;5061910;28;46285;-85
2022/01/04 00:39:37;;;;;;;;;0.00;0.00;;;;;10.81;75.33;99745.28;5061335;28;45385;-85
2022/01/04 00:42:02;;;;;;;;;0.00;0.00;;;;;10.46;75.33;99695.25;5067119;28;45663;-85
2022/01/04 00:44:28;;;;;;;;;0.00;0.00;;;;;11.47;75.23;99867.16;5070347;28;46995;-83
2022/01/04 00:46:53;;;;;;;;;0.00;0.00;;;;;10.67;75.03;99734.13;5091912;28;45481;-84
2022/01/04 00:49:21;;;;;;;;;0.00;0.00;;;;;10.85;75.28;99761.75;5087595;28;45359;-84
2022/01/04 00:51:50;;;;;;;;;0.00;0.00;;;;;11.29;75.16;99856.00;5084325;28;45363;-84
2022/01/04 00:54:19;;;;;;;;;0.25;0.00;;;;;10.85;75.36;99773.03;5064555;28;45289;-84
2022/01/04 00:56:46;;;;;;;;;0.00;0.00;;;;;10.95;75.23;99785.97;5082887;28;46286;-84
2022/01/04 00:59:11;;;;;;;;;0.00;0.00;;;;;11.33;75.25;99836.03;5082694;28;45468;-84
2022/01/04 01:01:38;;;;;;;;;0.00;0.00;;;;;11.27;75.50;99842.13;5082696;28;45394;-84
2022/01/04 01:04:05;;;;;;;;;0.00;0.00;;;;;10.60;75.30;99739.38;5082716;28;45381;-84
2022/01/04 01:06:31;;;;;;;;;0.00;0.00;;;;;10.62;75.43;99750.66;5081898;28;45382;-84
2022/01/04 01:08:57;;;;;;;;;0.00;0.00;;;;;10.96;75.60;99791.16;5063648;28;45375;-85
2022/01/04 01:11:23;;;;;;;;;0.00;0.00;;;;;10.60;75.39;99728.13;5063976;28;45485;-84
2022/01/04 01:13:48;;;;;;;;;0.25;0.00;;;;;10.34;75.28;99708.31;5082293;28;45803;-84
2022/01/04 01:16:14;;;;;;;;;0.00;0.00;;;;;10.73;75.35;99754.91;5063714;28;46102;-84
2022/01/04 01:18:39;;;;;;;;;0.00;0.00;;;;;10.69;75.58;99750.59;5084246;28;45498;-84
2022/01/04 01:21:06;;;;;;;;;0.00;0.00;;;;;11.07;75.58;99798.03;5080556;28;45421;-84
2022/01/04 01:23:32;;;;;;;;;0.00;0.00;;;;;10.53;75.46;99711.66;5065531;28;45478;-84
2022/01/04 01:25:59;;;;;;;;;0.00;0.00;;;;;10.81;75.41;99758.28;5082464;28;46276;-84
2022/01/04 01:28:25;;;;;;;;;0.00;0.00;;;;;10.72;75.36;99740.16;5063555;28;45733;-85
2022/01/04 01:30:51;;;;;;;;;0.00;0.00;;;;;10.52;75.56;99710.81;5081974;28;45377;-85
2022/01/04 01:33:17;;;;;;;;;0.00;0.00;;;;;10.89;75.61;99759.13;5065777;28;45355;-85
2022/01/04 01:35:43;;;;;;;;;0.00;0.00;;;;;11.00;75.46;99779.00;5060697;28;46149;-85
2022/01/04 01:38:10;;;;;;;;;0.00;0.00;;;;;11.09;75.26;99778.06;5066713;28;45496;-84
2022/01/04 01:40:37;;;;;;;;;0.00;0.00;;;;;10.70;75.30;99711.56;5061359;28;45483;-84
2022/01/04 01:43:03;;;;;;;;;0.00;0.00;;;;;11.11;75.00;99764.13;5061608;28;45468;-84
2022/01/04 01:45:29;;;;;;;;;0.00;0.00;;;;;9.98;74.74;99586.31;5072053;28;45799;-84
2022/01/04 01:47:55;;;;;;;;;0.00;0.00;;;;;10.49;74.75;99668.34;5081812;28;45405;-85
2022/01/04 01:50:21;;;;;;;;;0.00;0.00;;;;;10.60;74.92;99691.69;5085204;28;45240;-84
2022/01/04 01:52:49;;;;;;;;;0.00;0.00;;;;;10.80;74.63;99712.31;5101322;27;45579;-84
2022/01/04 01:55:17;;;;;;;;;0.00;0.00;;;;;10.65;74.59;99674.28;5081114;28;45530;-84
2022/01/04 01:57:43;;;;;;;;;0.00;0.00;;;;;10.78;74.39;99693.22;5081210;28;45372;-82
2022/01/04 02:00:11;;;;;;;;;0.00;0.00;;;;;10.72;74.87;99688.09;5081374;28;45467;-83
2022/01/04 02:02:36;;;;;;;;;0.00;0.00;;;;;10.24;74.21;99619.06;5063197;28;45423;-82
2022/01/04 02:05:03;;;;;;;;;0.50;0.00;;;;;10.60;74.72;99695.13;5062836;28;47197;-82
2022/01/04 02:07:30;;;;;;;;;0.00;0.00;;;;;9.87;74.51;99578.63;5081166;28;45487;-83
2022/01/04 02:10:05;;;;;;;;;0.00;0.00;;;;;9.94;74.60;99606.28;5081235;28;45425;-83
2022/01/04 02:12:40;;;;;;;;;0.00;0.00;;;;;10.34;75.12;99677.09;5081778;28;45510;-83
2022/01/04 02:15:10;;;;;;;;;0.00;0.00;;;;;10.65;74.96;99708.09;5081218;28;45507;-82
2022/01/04 02:17:36;;;;;;;;;0.00;0.00;;;;;9.91;74.76;99598.50;5081375;28;45376;-83
2022/01/04 02:20:03;;;;;;;;;0.00;0.00;;;;;10.60;75.23;99697.72;5063149;28;45313;-82
2022/01/04 02:22:30;;;;;;;;;0.00;0.00;;;;;10.16;74.90;99613.09;5081423;28;45472;-83
2022/01/04 02:24:55;;;;;;;;;0.00;0.00;;;;;10.38;75.25;99652.75;5080611;28;45358;-82
2022/01/04 02:27:21;;;;;;;;;0.00;0.00;;;;;10.17;75.08;99623.44;5080843;28;45448;-82
2022/01/04 02:29:47;;;;;;;;;0.00;0.00;;;;;10.55;75.39;99681.31;5080991;28;45457;-82
2022/01/04 02:32:14;;;;;;;;;0.00;0.00;;;;;10.56;75.35;99680.41;5056043;28;45309;-82
2022/01/04 02:34:40;;;;;;;;;0.00;0.00;;;;;10.52;75.13;99677.00;5060372;28;45420;-82
2022/01/04 02:37:09;;;;;;;;;0.00;0.00;;;;;10.02;75.37;99590.66;5042008;28;45569;-83
2022/01/04 02:39:36;;;;;;;;;0.00;0.00;;;;;10.17;75.25;99605.25;5059923;28;45489;-83
2022/01/04 02:42:04;;;;;;;;;0.00;0.00;;;;;9.95;75.52;99555.16;5060963;28;45456;-82
2022/01/04 02:44:30;;;;;;;;;0.00;0.00;;;;;10.45;75.09;99645.78;5060538;28;45695;-83
2022/01/04 02:46:55;;;;;;;;;0.00;0.00;;;;;9.96;75.24;99559.50;5060628;28;45435;-81
2022/01/04 02:49:21;;;;;;;;;0.00;0.00;;;;;10.43;75.60;99634.53;5062739;28;45380;-82
2022/01/04 02:51:46;;;;;;;;;0.00;0.00;;;;;10.26;75.64;99594.78;5060865;28;45468;-82
2022/01/04 02:54:12;;;;;;;;;0.00;0.00;;;;;9.94;75.84;99536.09;5068463;28;46583;-82
2022/01/04 02:56:37;;;;;;;;;0.00;0.00;;;;;9.96;75.41;99529.13;5053741;28;45325;-83
2022/01/04 02:59:04;;;;;;;;;0.00;0.00;;;;;10.16;75.26;99555.88;5060485;28;45945;-82
2022/01/04 03:01:32;;;;;;;;;0.00;0.00;;;;;10.36;75.59;99585.13;5060737;28;45504;-82
2022/01/04 03:03:58;;;;;;;;;0.00;0.00;;;;;10.17;75.60;99552.38;5060066;28;45308;-82
2022/01/04 03:06:24;;;;;;;;;0.00;0.00;;;;;10.34;75.49;99563.50;5059933;28;45309;-82
2022/01/04 03:08:49;;;;;;;;;0.00;0.00;;;;;10.11;75.16;99533.34;5041927;28;45473;-83
2022/01/04 03:11:15;;;;;;;;;0.00;0.00;;;;;10.57;75.43;99593.66;5060675;28;45500;-82
2022/01/04 03:13:40;;;;;;;;;0.00;0.00;;;;;9.83;75.25;99466.00;5060181;28;45357;-82
2022/01/04 03:16:05;;;;;;;;;0.00;0.00;;;;;10.23;75.42;99534.97;5026886;28;45716;-83
2022/01/04 03:18:31;;;;;;;;;0.00;0.00;;;;;10.56;75.66;99575.47;5040401;28;45380;-83
2022/01/04 03:20:56;;;;;;;;;0.00;0.00;;;;;10.41;75.33;99568.66;5042730;28;45491;-83
2022/01/04 03:23:22;;;;;;;;;0.00;0.00;;;;;10.27;75.55;99543.63;5043683;28;45449;-83
2022/01/04 03:25:47;;;;;;;;;0.00;0.00;;;;;10.28;75.49;99534.94;5026702;28;46178;-83
2022/01/04 03:28:13;;;;;;;;;0.00;0.00;;;;;10.12;75.65;99513.41;5043877;28;46004;-83
2022/01/04 03:30:39;;;;;;;;;0.00;0.00;;;;;10.40;76.15;99554.75;5046058;28;45443;-83
2022/01/04 03:33:04;;;;;;;;;0.00;0.00;;;;;10.41;75.83;99553.88;5049073;28;45417;-83
2022/01/04 03:35:30;;;;;;;;;0.00;0.00;;;;;9.65;75.71;99421.97;5027566;28;45387;-83
2022/01/04 03:37:55;;;;;;;;;0.00;0.00;;;;;10.26;75.72;99529.75;5044407;28;45439;-83
2022/01/04 03:40:21;;;;;;;;;0.00;0.00;;;;;9.83;75.86;99453.00;5045619;28;45614;-83
2022/01/04 03:42:46;;;;;;;;;0.00;0.00;;;;;10.20;75.52;99523.75;5045825;28;45550;-83
2022/01/04 03:45:11;;;;;;;;;0.00;0.00;;;;;9.83;75.66;99462.56;5051844;28;45347;-83
2022/01/04 03:47:37;;;;;;;;;1.00;0.00;;;;;10.13;75.72;99495.19;5054206;28;45379;-84
2022/01/04 03:50:04;;;;;;;;;0.00;0.00;;;;;10.35;76.04;99518.38;5047279;28;45461;-82
2022/01/04 03:52:29;;;;;;;;;0.00;0.00;;;;;10.35;75.95;99515.78;5027861;28;47735;-83
2022/01/04 03:54:55;;;;;;;;;0.00;0.00;;;;;10.09;75.55;99466.63;5045143;28;45431;-83
2022/01/04 03:57:20;;;;;;;;;0.00;0.00;;;;;9.89;75.54;99434.75;5051523;28;45293;-83
2022/01/04 03:59:46;;;;;;;;;0.00;0.00;;;;;9.92;75.50;99452.06;5056738;28;44813;-84
2022/01/04 04:02:11;;;;;;;;;0.00;0.00;;;;;10.14;76.00;99476.09;5044007;28;45588;-83
2022/01/04 04:04:37;;;;;;;;;0.00;0.00;;;;;10.44;75.94;99532.19;5043939;28;45364;-83
2022/01/04 04:07:02;;;;;;;;;0.00;0.00;;;;;10.20;75.39;99474.34;5025385;28;45344;-83
2022/01/04 04:09:28;;;;;;;;;0.00;0.00;;;;;10.62;75.53;99534.63;5043283;28;45616;-83
2022/01/04 04:11:53;;;;;;;;;0.00;0.00;;;;;10.27;75.43;99481.19;5042982;28;45423;-83
2022/01/04 04:14:18;;;;;;;;;0.00;0.00;;;;;9.98;74.93;99438.13;5043380;28;45505;-83
2022/01/04 04:16:44;;;;;;;;;0.00;0.00;;;;;10.32;75.21;99509.78;5043817;28;45407;-82
2022/01/04 04:19:09;;;;;;;;;0.00;0.00;;;;;10.33;75.08;99496.75;5025614;28;45415;-83
2022/01/04 04:21:34;;;;;;;;;0.00;0.00;;;;;10.11;75.27;99477.88;5044253;28;46563;-83
2022/01/04 04:24:00;;;;;;;;;0.00;0.00;;;;;10.09;74.93;99475.31;5025427;28;45486;-83
2022/01/04 04:26:26;;;;;;;;;0.00;0.00;;;;;10.39;75.20;99527.03;5045049;28;45540;-83
2022/01/04 04:28:51;;;;;;;;;0.00;0.00;;;;;10.29;75.01;99499.38;5044942;28;45510;-83
2022/01/04 04:31:17;;;;;;;;;0.00;0.00;;;;;9.83;74.96;99428.75;5042989;28;45504;-83
2022/01/04 04:33:42;;;;;;;;;0.00;0.00;;;;;9.95;75.04;99461.59;5061705;28;45485;-83
2022/01/04 04:36:10;;;;;;;;;0.00;0.00;;;;;10.46;75.04;99553.88;5045510;28;45754;-84
2022/01/04 04:38:36;;;;;;;;;0.00;0.00;;;;;10.42;75.12;99550.44;5062939;28;45406;-83
2022/01/04 04:41:02;;;;;;;;;0.00;0.00;;;;;9.78;75.22;99461.72;5062948;28;45398;-83
2022/01/04 04:43:27;;;;;;;;;0.00;0.00;;;;;9.95;75.11;99495.38;5045293;28;45455;-83
2022/01/04 04:45:52;;;;;;;;;0.00;0.00;;;;;10.00;75.00;99520.47;5062729;28;45656;-83
2022/01/04 04:48:18;;;;;;;;;0.00;0.00;;;;;9.57;75.24;99461.88;5062925;28;45897;-83
2022/01/04 04:50:43;;;;;;;;;0.00;0.00;;;;;10.09;75.82;99555.91;5062356;28;45758;-83
2022/01/04 04:53:09;;;;;;;;;0.00;0.00;;;;;9.78;75.75;99500.69;5062558;28;45397;-83
2022/01/04 04:55:34;;;;;;;;;0.00;0.00;;;;;9.50;75.33;99473.19;5062923;28;45389;-83
2022/01/04 04:58:00;;;;;;;;;0.00;0.00;;;;;9.75;75.46;99518.06;5063749;28;45533;-83
2022/01/04 05:00:25;;;;;;;;;0.00;0.00;;;;;9.75;75.51;99517.19;5071391;28;45929;-83
2022/01/04 05:02:51;;;;;;;;;0.00;0.00;;;;;9.92;76.06;99571.63;5059008;28;45418;-83
2022/01/04 05:05:16;;;;;;;;;0.00;0.00;;;;;9.67;75.95;99524.16;5063272;28;45438;-83
2022/01/04 05:07:41;;;;;;;;;0.00;0.00;;;;;9.92;75.74;99566.44;5063774;28;45576;-83
2022/01/04 05:10:08;;;;;;;;;0.00;0.00;;;;;9.73;75.97;99538.00;5046340;28;47297;-83
2022/01/04 05:12:34;;;;;;;;;0.00;0.00;;;;;9.63;75.82;99537.19;5044294;28;45372;-83
2022/01/04 05:14:59;;;;;;;;;0.00;0.00;;;;;9.55;76.05;99540.72;5063388;28;45450;-82
2022/01/04 05:17:25;;;;;;;;;0.00;0.00;;;;;9.00;76.31;99460.50;5062093;28;45461;-83
2022/01/04 05:19:50;;;;;;;;;0.00;0.00;;;;;9.58;75.93;99575.31;5063562;28;46749;-83
2022/01/04 05:22:16;;;;;;;;;0.00;0.00;;;;;9.41;76.23;99527.81;5081927;28;45374;-83
2022/01/04 05:24:41;;;;;;;;;0.00;0.00;;;;;9.32;75.95;99507.94;5082028;28;45437;-82
2022/01/04 05:27:07;;;;;;;;;0.00;0.00;;;;;9.32;76.07;99516.59;5081703;28;45531;-85
2022/01/04 05:29:32;;;;;;;;;0.00;0.00;;;;;9.31;76.28;99533.03;5081290;28;46487;-84
2022/01/04 05:31:58;;;;;;;;;0.00;0.00;;;;;9.25;75.81;99526.16;5065822;28;45473;-84
2022/01/04 05:34:25;;;;;;;;;0.00;0.00;;;;;9.08;75.54;99497.69;5079867;28;45334;-83
2022/01/04 05:36:51;;;;;;;;;0.00;0.00;;;;;9.54;75.90;99576.22;5081576;28;45486;-83
2022/01/04 05:39:16;;;;;;;;;1.00;0.00;;;;;9.23;76.25;99527.03;5081205;28;45507;-83
2022/01/04 05:41:41;;;;;;;;;0.00;0.00;;;;;9.52;75.69;99580.56;5070280;28;45420;-83
2022/01/04 05:44:07;;;;;;;;;0.00;0.00;;;;;9.25;75.52;99541.72;5061283;28;45853;-83
2022/01/04 05:46:32;;;;;;;;;0.00;0.00;;;;;9.36;75.98;99551.19;5061504;28;45522;-83
2022/01/04 05:48:58;;;;;;;;;0.00;0.00;;;;;9.46;75.74;99577.97;5043411;28;46669;-83
2022/01/04 05:51:24;;;;;;;;;0.00;0.00;;;;;9.13;75.91;99518.44;5043073;28;45958;-83
2022/01/04 05:53:49;;;;;;;;;0.00;0.00;;;;;9.28;75.77;99538.25;5042912;28;45292;-83
2022/01/04 05:56:14;;;;;;;;;0.00;0.00;;;;;8.95;75.55;99476.09;5043590;28;45622;-83
2022/01/04 05:58:40;;;;;;;;;0.00;0.00;;;;;8.85;75.69;99461.47;5062173;28;46439;-83
2022/01/04 06:01:06;;;;;;;;;0.00;0.00;;;;;9.51;75.69;99576.22;5044525;28;45707;-84
2022/01/04 06:03:31;;;;;;;;;0.00;0.00;;;;;9.42;75.76;99553.78;5052708;28;45412;-82
2022/01/04 06:05:56;;;;;;;;;0.00;0.00;;;;;9.18;75.33;99492.44;5080967;28;45317;-83
2022/01/04 06:08:22;;;;;;;;;0.00;0.00;;;;;9.26;75.44;99485.47;5070349;28;45268;-83
2022/01/04 06:10:51;;;;;;;;;0.00;0.00;;;;;9.72;75.32;99530.19;5074108;28;45519;-84
2022/01/04 06:16:01;;;;;;;;;0.00;0.00;;;;;9.77;74.59;99538.81;5072470;28;44843;-84
2022/01/04 06:18:26;;;;;;;;;0.00;0.00;;;;;9.80;74.79;99518.00;5066561;28;45489;-84
2022/01/04 06:20:55;;;;;;;;;0.00;0.00;;;;;9.73;74.25;99517.19;5062283;28;45461;-83
2022/01/04 06:23:20;;;;;;;;;0.50;0.00;;;;;9.71;74.58;99513.72;5061070;28;45359;-84
2022/01/04 06:25:46;;;;;;;;;0.00;0.00;;;;;9.76;74.57;99522.38;5062020;28;45401;-84
2022/01/04 06:28:11;;;;;;;;;0.00;0.00;;;;;9.71;74.39;99520.69;5045194;28;46602;-84
2022/01/04 06:30:37;;;;;;;;;0.00;0.00;;;;;10.02;74.48;99588.88;5061422;28;45387;-82
2022/01/04 06:33:02;;;;;;;;;0.00;0.00;;;;;9.12;74.23;99455.25;5070809;28;45455;-83
2022/01/04 06:35:29;;;;;;;;;0.00;0.00;;;;;9.63;74.37;99547.59;5068774;28;45541;-83
2022/01/04 06:37:55;;;;;;;;;0.00;0.00;;;;;9.98;74.62;99604.50;5069775;28;46030;-82
2022/01/04 06:40:20;;;;;;;;;0.00;0.00;;;;;9.46;74.23;99523.44;5068098;28;45390;-84
2022/01/04 06:42:46;;;;;;;;;0.00;0.00;;;;;9.59;74.18;99551.06;5052195;28;45557;-82
2022/01/04 06:45:12;;;;;;;;;0.75;0.00;;;;;9.99;74.39;99607.09;5059986;28;45490;-82
2022/01/04 06:47:39;;;;;;;;;0.00;0.00;;;;;9.96;74.36;99608.88;5079117;28;45549;-82
2022/01/04 06:50:06;;;;;;;;;0.00;0.00;;;;;9.42;74.09;99545.97;5076965;28;45500;-82
2022/01/04 06:52:31;;;;;;;;;0.00;0.00;;;;;9.66;74.17;99600.41;5070742;28;45370;-84
2022/01/04 06:54:56;;;;;;;;;0.00;0.00;;;;;9.29;74.55;99557.31;5079508;28;45366;-82
2022/01/04 06:57:22;;;;;;;;;0.00;0.00;;;;;9.49;74.34;99603.94;5063738;28;47518;-81
2022/01/04 06:59:47;;;;;;;;;0.00;0.00;;;;;9.56;75.13;99618.63;5082411;28;45369;-82
2022/01/04 07:02:13;;;;;;;;;1.00;0.00;;;;;9.30;74.53;99565.09;5082127;28;45520;-83
2022/01/04 07:04:38;;;;;;;;;0.00;0.00;;;;;9.38;74.73;99596.22;5082435;28;45409;-83
2022/01/04 07:07:04;;;;;;;;;0.00;0.00;;;;;9.14;75.23;99553.91;5070723;28;46158;-85
2022/01/04 07:09:29;;;;;;;;;0.00;0.00;;;;;9.22;74.75;99588.47;5073589;28;45376;-81
2022/01/04 07:11:54;;;;;;;;;0.00;0.00;;;;;9.46;74.87;99614.34;5062851;28;45494;-82
2022/01/04 07:14:20;;;;;;;;;0.00;0.00;;;;;9.28;74.84;99586.75;5062789;28;45437;-82
2022/01/04 07:16:45;;;;;;;;;0.00;0.00;;;;;9.19;74.98;99577.25;5064514;28;45403;-82
2022/01/04 07:19:11;;;;;;;;;0.00;0.00;;;;;9.54;75.37;99648.09;5061932;28;45479;-82
2022/01/04 07:21:36;;;;;;;;;0.00;0.00;;;;;9.45;74.65;99610.03;5062269;28;45410;-85
2022/01/04 07:24:03;;;;;;;;;0.00;0.00;;;;;9.32;75.06;99583.25;5064475;28;45694;-83
2022/01/04 07:26:29;;;;;;;;;0.00;0.00;;;;;9.20;74.91;99576.38;5045780;28;47538;-85
2022/01/04 07:28:54;;;;;;;;;0.00;0.00;;;;;8.96;75.34;99542.75;5065446;28;45350;-85
2022/01/04 07:31:20;;;;;;;;;0.00;0.00;;;;;9.33;75.11;99619.63;5066305;28;45966;-85
2022/01/04 07:33:50;;;;;;;;;0.00;0.00;;;;;9.57;74.75;99659.34;5078694;28;45295;-85
2022/01/04 07:36:15;;;;;;;;;0.00;0.00;;;;;9.62;75.36;99654.97;5067833;28;45457;-83
2022/01/04 07:38:42;;;;;;;;;0.00;0.00;;;;;9.18;74.78;99580.72;5055410;28;45512;-87
2022/01/04 07:41:07;;;;;;;;;0.00;0.00;;;;;8.97;75.25;99536.66;5059964;28;45745;-84
2022/01/04 07:43:34;;;;;;;;;0.00;0.00;;;;;9.56;74.86;99613.44;5073908;28;45464;-86
2022/01/04 07:46:00;;;;;;;;;0.00;0.00;;;;;9.36;75.01;99590.16;5079662;28;46551;-87
2022/01/04 07:48:25;;;;;;;;;0.00;0.00;;;;;9.12;74.31;99540.94;5046792;28;45445;-89
2022/01/04 07:50:55;;;;;;;;;0.00;0.00;;;;;9.13;74.17;99542.66;5064951;28;45269;-89
2022/01/04 07:53:22;;;;;;;;;0.00;0.00;;;;;9.66;73.91;99641.97;5072201;28;45387;-87
2022/01/04 07:55:48;;;;;;;;;0.00;0.00;;;;;9.45;74.19;99594.44;5079615;28;45326;-86
2022/01/04 07:58:13;;;;;;;;;1.00;0.00;;;;;10.10;74.15;99689.38;5080096;28;45052;-83
2022/01/04 08:00:39;;;;;;;;;0.00;0.00;;;;;9.97;74.19;99655.66;5100767;28;45384;-88
2022/01/04 08:03:06;;;;;;;;;0.00;0.00;;;;;10.20;73.75;99692.81;5061975;28;45352;-82
2022/01/04 08:05:32;;;;;;;;;0.00;0.00;;;;;10.23;73.76;99708.41;5043799;28;47769;-80
2022/01/04 08:07:57;;;;;;;;;0.00;0.00;;;;;9.79;73.96;99642.75;5068235;28;45737;-81
2022/01/04 08:10:23;;;;;;;;;0.00;0.00;;;;;10.00;73.47;99680.78;5083089;28;45542;-82
2022/01/04 08:12:48;;;;;;;;;0.00;0.00;;;;;9.93;73.32;99674.78;5097545;28;45823;-83
2022/01/04 08:15:14;;;;;;;;;0.00;0.00;;;;;9.89;73.35;99692.09;5083992;28;45794;-82
2022/01/04 08:17:39;;;;;;;;;1.00;1.00;;;;;9.59;73.40;99654.16;5081981;28;45440;-85
2022/01/04 08:20:06;;;;;;;;;0.00;0.00;;;;;9.29;73.19;99630.03;5049151;28;45459;-82
2022/01/04 08:22:33;;;;;;;;;0.00;0.00;;;;;9.59;73.06;99690.53;5043880;28;45485;-82
2022/01/04 08:25:01;;;;;;;;;0.00;0.00;;;;;9.56;73.79;99667.16;5061044;28;45482;-85
2022/01/04 08:27:27;;;;;;;;;0.00;0.00;;;;;10.02;73.92;99723.25;5061628;28;45368;-82
2022/01/04 08:29:52;;;;;;;;;0.00;0.00;;;;;10.08;74.01;99715.38;5062226;28;45361;-83
2022/01/04 08:32:18;;;;;;;;;0.00;0.00;;;;;10.18;73.65;99733.56;5070389;28;45594;-81
2022/01/04 08:34:44;;;;;;;;;0.00;0.00;;;;;10.30;73.28;99737.81;5084512;28;45533;-84
2022/01/04 08:37:09;;;;;;;;;0.00;0.00;;;;;10.12;73.24;99719.72;5061022;28;45375;-84
2022/01/04 08:39:34;;;;;;;;;0.00;0.00;;;;;10.21;73.09;99751.75;5063767;28;45500;-84
2022/01/04 08:42:02;;;;;;;;;0.00;0.00;;;;;10.17;73.54;99765.66;5066592;28;45404;-85
2022/01/04 08:44:28;;;;;;;;;0.00;0.00;;;;;10.07;73.57;99739.69;5044126;28;47382;-88
2022/01/04 08:46:54;;;;;;;;;0.00;0.00;;;;;9.62;73.47;99674.94;5061714;28;45524;-87
2022/01/04 08:49:19;;;;;;;;;0.00;0.00;;;;;9.50;73.15;99647.25;5043837;28;45370;-85
2022/01/04 08:51:45;;;;;;;;;4.00;1.00;;;;;10.16;73.53;99780.38;5062448;28;45492;-83
2022/01/04 08:54:11;;;;;;;;;0.00;0.00;;;;;9.82;73.68;99712.94;5061463;28;45415;-85
2022/01/04 08:56:36;;;;;;;;;0.00;0.00;;;;;9.96;73.61;99741.47;5041961;28;45442;-82
2022/01/04 08:59:04;;;;;;;;;0.00;0.00;;;;;10.26;73.58;99782.06;5072832;28;45362;-87
2022/01/04 09:01:29;;;;;;;;;0.00;0.00;;;;;10.30;73.47;99776.84;5066177;28;45645;-83
2022/01/04 09:03:54;;;;;;;;;0.00;0.00;;;;;9.82;73.58;99700.81;5060624;28;45682;-82
2022/01/04 09:06:22;;;;;;;;;0.00;0.00;;;;;9.85;73.36;99713.78;5063184;28;45400;-82
2022/01/04 09:08:47;;;;;;;;;0.00;0.00;;;;;9.93;73.66;99731.09;5070816;28;45527;-85
2022/01/04 09:11:15;;;;;;;;;0.00;0.00;;;;;9.91;73.46;99727.63;5058242;28;45473;-86
2022/01/04 09:13:43;;;;;;;;;0.00;0.00;;;;;9.63;73.18;99687.91;5051523;28;47559;-84
2022/01/04 09:18:49;;;;;;;;;0.00;0.00;;;;;9.54;73.47;99697.47;5074422;27;44850;-84
2022/01/04 09:21:25;;;;;;;;;1.00;0.00;;;;;9.78;73.25;99745.88;5066096;28;45557;-85
2022/01/04 09:23:53;;;;;;;;;0.00;0.00;;;;;9.63;73.01;99726.00;5078300;28;46215;-90
2022/01/04 09:26:19;;;;;;;;;0.00;0.00;;;;;9.54;73.45;99707.84;5057584;28;45556;-84
2022/01/04 09:28:45;;;;;;;;;0.00;0.00;;;;;9.73;73.07;99739.81;5069706;28;45339;-86
2022/01/04 09:31:11;;;;;;;;;0.00;0.00;;;;;9.93;72.99;99783.97;5053305;28;45481;-85
2022/01/04 09:33:38;;;;;;;;;0.00;0.00;;;;;9.93;73.07;99757.09;5048140;28;48681;-84
2022/01/04 09:36:05;;;;;;;;;0.00;0.00;;;;;9.84;73.09;99745.00;5076619;28;45441;-85
2022/01/04 09:38:31;;;;;;;;;0.00;0.00;;;;;9.74;72.87;99721.63;5055156;28;45388;-86
2022/01/04 09:40:57;;;;;;;;;0.00;0.00;;;;;10.03;73.05;99763.97;5063330;28;45314;-85
2022/01/04 09:43:22;;;;;;;;;0.00;0.00;;;;;9.67;72.83;99709.53;5078095;28;45547;-83
2022/01/04 09:45:48;;;;;;;;;1.00;0.00;;;;;9.52;72.58;99689.66;5050005;28;45795;-85
2022/01/04 09:48:14;;;;;;;;;0.00;0.00;;;;;10.12;72.66;99786.47;5070089;28;45651;-83
2022/01/04 09:50:42;;;;;;;;;0.00;0.00;;;;;10.11;72.70;99783.00;5067016;28;45671;-83
2022/01/04 09:53:09;;;;;;;;;0.00;0.00;;;;;10.20;72.69;99789.03;5079749;28;45519;-84
2022/01/04 09:55:42;;;;;;;;;0.00;0.00;;;;;9.83;72.39;99746.72;5062339;28;45738;-84
2022/01/04 09:58:07;;;;;;;;;0.00;0.00;;;;;9.84;72.39;99758.88;5079322;28;45548;-88
2022/01/04 10:00:33;;;;;;;;;0.00;0.00;;;;;9.83;72.94;99764.91;5064246;28;45526;-86
2022/01/04 10:03:15;;;;;;;;;0.00;0.00;;;;;9.55;72.71;99707.84;5060437;28;47103;-85
2022/01/04 10:05:42;;;;;;;;;0.00;0.00;;;;;9.59;72.50;99717.34;5071861;28;45575;-86
2022/01/04 10:08:15;;;;;;;;;0.00;0.00;;;;;10.25;72.38;99823.69;5065672;28;45501;-89
2022/01/04 10:10:42;;;;;;;;;0.00;0.00;;;;;9.30;72.02;99673.28;5051066;28;45469;-86
2022/01/04 10:13:15;;;;;;;;;0.00;0.00;;;;;10.25;72.35;99832.34;5054520;28;47815;-86
2022/01/04 10:15:43;;;;;;;;;0.00;0.00;;;;;9.33;72.21;99696.66;5053648;28;45344;-88
2022/01/04 10:18:18;;;;;;;;;0.00;0.00;;;;;10.25;72.66;99834.09;5053165;28;45292;-88
2022/01/04 10:20:48;;;;;;;;;0.00;0.00;;;;;9.54;72.41;99719.13;5061336;28;45152;-86
2022/01/04 10:23:16;;;;;;;;;0.00;0.00;;;;;9.72;72.49;99735.50;5048659;28;48006;-88
2022/01/04 10:25:43;;;;;;;;;0.00;0.00;;;;;9.80;72.33;99749.31;5056005;28;45549;-87
2022/01/04 10:28:08;;;;;;;;;0.00;0.00;;;;;9.87;72.28;99735.44;5059702;28;45838;-88
2022/01/04 10:30:36;;;;;;;;;0.00;0.00;;;;;10.19;72.11;99774.28;5077912;28;45283;-88
2022/01/04 10:33:20;;;;;;;;;0.00;0.00;;;;;10.03;71.94;99732.78;5069837;28;47526;-85
2022/01/04 10:35:50;;;;;;;;;1.00;0.00;;;;;10.53;71.46;99818.34;5081904;28;45413;-84
2022/01/04 10:38:17;;;;;;;;;0.00;0.00;;;;;10.21;71.72;99765.63;5074015;28;45590;-83
2022/01/04 10:41:03;;;;;;;;;0.00;0.00;;;;;10.39;71.65;99789.81;5052638;28;45574;-85
2022/01/04 10:43:37;;;;;;;;;0.00;0.00;;;;;10.46;71.32;99788.03;5064456;28;45385;-84
2022/01/04 10:46:04;;;;;;;;;0.00;0.00;;;;;10.61;71.72;99823.53;5078927;28;45440;-82
2022/01/04 10:48:44;;;;;;;;;0.00;0.00;;;;;10.60;71.60;99812.25;5085673;28;45563;-84
2022/01/04 10:51:12;;;;;;;;;0.00;0.00;;;;;10.57;71.36;99806.22;5076079;28;45410;-85
2022/01/04 10:53:49;;;;;;;;;0.00;0.00;;;;;10.13;71.56;99731.84;5068853;28;45446;-87
2022/01/04 10:56:17;;;;;;;;;0.00;0.00;;;;;10.22;71.71;99758.66;5048448;28;45290;-84
2022/01/04 10:58:51;;;;;;;;;0.00;0.00;;;;;10.13;71.40;99743.97;5045507;28;45387;-84
2022/01/04 11:01:22;;;;;;;;;0.00;0.00;;;;;10.22;71.46;99748.25;5067251;28;45311;-88
2022/01/04 11:04:16;;;;;;;;;0.00;0.00;;;;;10.25;71.70;99756.94;5075773;28;45389;-84
2022/01/04 11:06:42;;;;;;;;;0.00;0.00;;;;;10.33;71.51;99761.22;5070418;28;45504;-85
2022/01/04 11:09:09;;;;;;;;;0.00;0.00;;;;;9.90;71.66;99705.97;5060096;28;45592;-83
2022/01/04 11:11:34;;;;;;;;;0.00;0.00;;;;;10.09;71.50;99731.88;5073965;28;45417;-83
2022/01/04 11:14:37;;;;;;;;;2.00;0.00;;;;;10.59;71.50;99815.72;5069982;28;46247;-86
2022/01/04 11:17:03;;;;;;;;;0.50;0.50;;;;;9.79;71.69;99676.56;5067542;28;45547;-82
2022/01/04 11:20:06;;;;;;;;;0.00;0.00;;;;;10.60;71.58;99801.81;5054269;28;45403;-82
2022/01/04 11:22:33;;;;;;;;;0.00;0.00;;;;;9.82;71.60;99674.81;5073808;28;45512;-83
2022/01/04 11:25:02;;;;;;;;;0.00;0.00;;;;;10.01;71.69;99729.31;5065907;28;47059;-85
2022/01/04 11:27:30;;;;;;;;;0.00;0.00;;;;;10.11;71.99;99750.94;5074481;28;45559;-82
2022/01/04 11:29:58;;;;;;;;;0.00;0.00;;;;;10.12;72.32;99755.25;5082698;28;45439;-86
2022/01/04 11:32:59;;;;;;;;;0.00;0.00;;;;;10.51;71.99;99809.72;5065138;28;45379;-85
2022/01/04 11:35:26;;;;;;;;;0.00;0.00;;;;;10.24;71.97;99751.72;5059148;27;45428;-84
2022/01/04 11:37:56;;;;;;;;;0.00;0.00;;;;;10.33;72.21;99772.50;5070995;28;45410;-84
2022/01/04 11:40:41;;;;;;;;;0.50;0.00;;;;;10.44;72.33;99782.81;5077997;27;45532;-88
2022/01/04 11:43:25;;;;;;;;;0.00;0.00;;;;;10.65;72.27;99801.81;5077878;27;45440;-82